sensor_id;sensor_type;location;lat;lon;timestamp;temperature;humidity
7214;DHT22;3648;50.614;13.830;2024-02-28T00:02:03;5.20;1.00
7214;DHT22;3648;50.614;13.830;2024-02-28T00:04:30;5.20;1.00
7214;DHT22;3648;50.614;13.830;2024-02-28T00:06:57;5.20;1.00
7214;DHT22;3648;50.614;13.830;2024-02-28T00:09:24;5.20;1.00
7214;DHT22;3648;50.614;13.830;2024-02-28T00:11:51;5.20;1.00
7214;DHT22;3648;50.614;13.830;2024-02-28T00:14:19;5.20;1.00
7214;DHT22;3648;50.614;13.830;2024-02-28T00:16:46;5.20;1.00
7214;DHT22;3648;50.614;13.830;2024-02-28T00:19:14;5.30;1.00
7214;DHT22;3648;50.614;13.830;2024-02-28T00:21:42;5.30;1.00
7214;DHT22;3648;50.614;13.830;2024-02-28T00:24:10;5.20;1.00
7214;DHT22;3648;50.614;13.830;2024-02-28T00:26:40;5.30;1.00
7214;DHT22;3648;50.614;13.830;2024-02-28T00:29:07;5.30;1.00
7214;DHT22;3648;50.614;13.830;2024-02-28T00:31:35;5.10;1.00
7214;DHT22;3648;50.614;13.830;2024-02-28T00:34:02;5.10;1.00
7214;DHT22;3648;50.614;13.830;2024-02-28T00:36:29;5.20;1.00
7214;DHT22;3648;50.614;13.830;2024-02-28T00:38:56;5.10;1.00
7214;DHT22;3648;50.614;13.830;2024-02-28T00:41:23;5.10;1.00
7214;DHT22;3648;50.614;13.830;2024-02-28T00:43:50;5.20;1.00
7214;DHT22;3648;50.614;13.830;2024-02-28T00:46:17;5.30;1.00
7214;DHT22;3648;50.614;13.830;2024-02-28T00:48:45;5.30;1.00
7214;DHT22;3648;50.614;13.830;2024-02-28T00:51:12;5.20;1.00
7214;DHT22;3648;50.614;13.830;2024-02-28T00:53:39;5.10;1.00
7214;DHT22;3648;50.614;13.830;2024-02-28T00:56:07;5.10;1.00
7214;DHT22;3648;50.614;13.830;2024-02-28T00:58:34;5.00;1.00
7214;DHT22;3648;50.614;13.830;2024-02-28T01:01:01;5.00;1.00
7214;DHT22;3648;50.614;13.830;2024-02-28T01:03:28;5.00;1.00
7214;DHT22;3648;50.614;13.830;2024-02-28T01:05:56;5.00;1.00
7214;DHT22;3648;50.614;13.830;2024-02-28T01:08:26;5.00;1.00
7214;DHT22;3648;50.614;13.830;2024-02-28T01:10:53;5.00;1.00
7214;DHT22;3648;50.614;13.830;2024-02-28T01:13:20;5.00;1.00
7214;DHT22;3648;50.614;13.830;2024-02-28T01:15:48;5.10;1.00
7214;DHT22;3648;50.614;13.830;2024-02-28T01:18:15;5.00;1.00
7214;DHT22;3648;50.614;13.830;2024-02-28T01:20:42;5.10;1.00
7214;DHT22;3648;50.614;13.830;2024-02-28T01:23:11;5.20;1.00
7214;DHT22;3648;50.614;13.830;2024-02-28T01:25:38;5.20;1.00
7214;DHT22;3648;50.614;13.830;2024-02-28T01:28:05;5.20;1.00
7214;DHT22;3648;50.614;13.830;2024-02-28T01:30:32;5.30;1.00
7214;DHT22;3648;50.614;13.830;2024-02-28T01:32:58;5.30;1.00
7214;DHT22;3648;50.614;13.830;2024-02-28T01:35:25;5.40;1.00
7214;DHT22;3648;50.614;13.830;2024-02-28T01:37:52;5.30;1.00
7214;DHT22;3648;50.614;13.830;2024-02-28T01:40:21;5.30;1.00
7214;DHT22;3648;50.614;13.830;2024-02-28T01:42:48;5.30;1.00
7214;DHT22;3648;50.614;13.830;2024-02-28T01:45:15;5.30;1.00
7214;DHT22;3648;50.614;13.830;2024-02-28T01:47:42;5.30;1.00
7214;DHT22;3648;50.614;13.830;2024-02-28T01:50:09;5.30;1.00
7214;DHT22;3648;50.614;13.830;2024-02-28T01:52:38;5.30;1.00
7214;DHT22;3648;50.614;13.830;2024-02-28T01:55:06;5.30;1.00
7214;DHT22;3648;50.614;13.830;2024-02-28T01:57:34;5.30;1.00
7214;DHT22;3648;50.614;13.830;2024-02-28T02:00:04;5.20;1.00
7214;DHT22;3648;50.614;13.830;2024-02-28T02:02:31;5.10;1.00
7214;DHT22;3648;50.614;13.830;2024-02-28T02:04:58;5.10;1.00
7214;DHT22;3648;50.614;13.830;2024-02-28T02:07:25;5.10;1.00
7214;DHT22;3648;50.614;13.830;2024-02-28T02:09:52;5.10;1.00
7214;DHT22;3648;50.614;13.830;2024-02-28T02:12:19;5.10;1.00
7214;DHT22;3648;50.614;13.830;2024-02-28T02:14:49;5.10;1.00
7214;DHT22;3648;50.614;13.830;2024-02-28T02:17:16;5.10;1.00
7214;DHT22;3648;50.614;13.830;2024-02-28T02:19:43;5.00;1.00
7214;DHT22;3648;50.614;13.830;2024-02-28T02:22:11;5.00;1.00
7214;DHT22;3648;50.614;13.830;2024-02-28T02:24:41;5.00;1.00
7214;DHT22;3648;50.614;13.830;2024-02-28T02:27:08;5.00;1.00
7214;DHT22;3648;50.614;13.830;2024-02-28T02:29:35;5.00;1.00
7214;DHT22;3648;50.614;13.830;2024-02-28T02:32:02;5.10;1.00
7214;DHT22;3648;50.614;13.830;2024-02-28T02:34:29;5.10;1.00
7214;DHT22;3648;50.614;13.830;2024-02-28T02:36:55;5.10;1.00
7214;DHT22;3648;50.614;13.830;2024-02-28T02:39:22;5.10;1.00
7214;DHT22;3648;50.614;13.830;2024-02-28T02:41:51;5.10;1.00
7214;DHT22;3648;50.614;13.830;2024-02-28T02:44:17;5.00;1.00
7214;DHT22;3648;50.614;13.830;2024-02-28T02:46:44;5.00;1.00
7214;DHT22;3648;50.614;13.830;2024-02-28T02:49:11;5.10;1.00
7214;DHT22;3648;50.614;13.830;2024-02-28T02:51:38;5.10;1.00
7214;DHT22;3648;50.614;13.830;2024-02-28T02:54:07;5.20;1.00
7214;DHT22;3648;50.614;13.830;2024-02-28T02:56:34;5.20;1.00
7214;DHT22;3648;50.614;13.830;2024-02-28T02:59:03;5.20;1.00
7214;DHT22;3648;50.614;13.830;2024-02-28T03:01:30;5.20;1.00
7214;DHT22;3648;50.614;13.830;2024-02-28T03:03:57;5.20;1.00
7214;DHT22;3648;50.614;13.830;2024-02-28T03:06:24;5.20;1.00
7214;DHT22;3648;50.614;13.830;2024-02-28T03:08:51;5.10;1.00
7214;DHT22;3648;50.614;13.830;2024-02-28T03:11:18;5.10;1.00
7214;DHT22;3648;50.614;13.830;2024-02-28T03:13:44;5.10;1.00
7214;DHT22;3648;50.614;13.830;2024-02-28T03:16:13;5.10;1.00
7214;DHT22;3648;50.614;13.830;2024-02-28T03:18:40;5.00;1.00
7214;DHT22;3648;50.614;13.830;2024-02-28T03:21:06;5.00;1.00
7214;DHT22;3648;50.614;13.830;2024-02-28T03:23:33;5.00;1.00
7214;DHT22;3648;50.614;13.830;2024-02-28T03:26:01;5.00;1.00
7214;DHT22;3648;50.614;13.830;2024-02-28T03:28:29;5.00;1.00
7214;DHT22;3648;50.614;13.830;2024-02-28T03:30:56;4.90;1.00
7214;DHT22;3648;50.614;13.830;2024-02-28T03:33:24;5.00;1.00
7214;DHT22;3648;50.614;13.830;2024-02-28T03:35:51;5.00;1.00
7214;DHT22;3648;50.614;13.830;2024-02-28T03:38:18;5.00;1.00
7214;DHT22;3648;50.614;13.830;2024-02-28T03:40:45;5.00;1.00
7214;DHT22;3648;50.614;13.830;2024-02-28T03:43:12;5.10;1.00
7214;DHT22;3648;50.614;13.830;2024-02-28T03:45:39;5.00;1.00
7214;DHT22;3648;50.614;13.830;2024-02-28T03:48:07;5.10;1.00
7214;DHT22;3648;50.614;13.830;2024-02-28T03:50:35;5.10;1.00
7214;DHT22;3648;50.614;13.830;2024-02-28T03:53:03;5.00;1.00
7214;DHT22;3648;50.614;13.830;2024-02-28T03:55:30;5.10;1.00
7214;DHT22;3648;50.614;13.830;2024-02-28T03:57:57;5.10;1.00
7214;DHT22;3648;50.614;13.830;2024-02-28T04:00:24;5.20;1.00
7214;DHT22;3648;50.614;13.830;2024-02-28T04:02:52;5.20;1.00
7214;DHT22;3648;50.614;13.830;2024-02-28T04:05:19;5.20;1.00
7214;DHT22;3648;50.614;13.830;2024-02-28T04:07:47;5.20;1.00
7214;DHT22;3648;50.614;13.830;2024-02-28T04:10:14;5.20;1.00
7214;DHT22;3648;50.614;13.830;2024-02-28T04:12:42;5.20;1.00
7214;DHT22;3648;50.614;13.830;2024-02-28T04:15:10;5.20;1.00
7214;DHT22;3648;50.614;13.830;2024-02-28T04:17:38;5.20;1.00
7214;DHT22;3648;50.614;13.830;2024-02-28T04:20:08;5.20;1.00
7214;DHT22;3648;50.614;13.830;2024-02-28T04:22:35;5.10;1.00
7214;DHT22;3648;50.614;13.830;2024-02-28T04:25:04;5.10;1.00
7214;DHT22;3648;50.614;13.830;2024-02-28T04:27:31;5.00;1.00
7214;DHT22;3648;50.614;13.830;2024-02-28T04:29:58;5.00;1.00
7214;DHT22;3648;50.614;13.830;2024-02-28T04:32:25;5.00;1.00
7214;DHT22;3648;50.614;13.830;2024-02-28T04:34:52;4.90;1.00
7214;DHT22;3648;50.614;13.830;2024-02-28T04:37:19;4.90;1.00
7214;DHT22;3648;50.614;13.830;2024-02-28T04:39:46;4.90;1.00
7214;DHT22;3648;50.614;13.830;2024-02-28T04:42:15;4.90;1.00
7214;DHT22;3648;50.614;13.830;2024-02-28T04:44:42;4.90;1.00
7214;DHT22;3648;50.614;13.830;2024-02-28T04:47:09;4.90;1.00
7214;DHT22;3648;50.614;13.830;2024-02-28T04:49:37;4.80;1.00
7214;DHT22;3648;50.614;13.830;2024-02-28T04:52:05;4.80;1.00
7214;DHT22;3648;50.614;13.830;2024-02-28T04:54:32;4.80;1.00
7214;DHT22;3648;50.614;13.830;2024-02-28T04:56:59;4.80;1.00
7214;DHT22;3648;50.614;13.830;2024-02-28T04:59:27;4.80;1.00
7214;DHT22;3648;50.614;13.830;2024-02-28T05:01:54;4.70;1.00
7214;DHT22;3648;50.614;13.830;2024-02-28T05:04:21;4.70;1.00
7214;DHT22;3648;50.614;13.830;2024-02-28T05:06:49;4.80;1.00
7214;DHT22;3648;50.614;13.830;2024-02-28T05:09:16;4.80;1.00
7214;DHT22;3648;50.614;13.830;2024-02-28T05:11:44;4.90;1.00
7214;DHT22;3648;50.614;13.830;2024-02-28T05:14:11;4.90;1.00
7214;DHT22;3648;50.614;13.830;2024-02-28T05:16:39;4.90;1.00
7214;DHT22;3648;50.614;13.830;2024-02-28T05:19:06;4.90;1.00
7214;DHT22;3648;50.614;13.830;2024-02-28T05:21:39;4.90;1.00
7214;DHT22;3648;50.614;13.830;2024-02-28T05:24:07;4.90;1.00
7214;DHT22;3648;50.614;13.830;2024-02-28T05:26:34;4.90;1.00
7214;DHT22;3648;50.614;13.830;2024-02-28T05:29:02;4.80;1.00
7214;DHT22;3648;50.614;13.830;2024-02-28T05:31:29;4.80;1.00
7214;DHT22;3648;50.614;13.830;2024-02-28T05:33:59;4.80;1.00
7214;DHT22;3648;50.614;13.830;2024-02-28T05:36:28;4.80;1.00
7214;DHT22;3648;50.614;13.830;2024-02-28T05:38:56;4.80;1.00
7214;DHT22;3648;50.614;13.830;2024-02-28T05:41:24;4.90;1.00
7214;DHT22;3648;50.614;13.830;2024-02-28T05:43:51;4.80;1.00
7214;DHT22;3648;50.614;13.830;2024-02-28T05:46:19;4.90;1.00
7214;DHT22;3648;50.614;13.830;2024-02-28T05:48:47;5.00;1.00
7214;DHT22;3648;50.614;13.830;2024-02-28T05:51:16;5.00;1.00
7214;DHT22;3648;50.614;13.830;2024-02-28T05:53:43;4.90;1.00
7214;DHT22;3648;50.614;13.830;2024-02-28T05:56:10;4.90;1.00
7214;DHT22;3648;50.614;13.830;2024-02-28T05:58:40;5.00;1.00
7214;DHT22;3648;50.614;13.830;2024-02-28T06:01:08;5.00;1.00
7214;DHT22;3648;50.614;13.830;2024-02-28T06:03:35;5.10;1.00
7214;DHT22;3648;50.614;13.830;2024-02-28T06:06:02;5.10;1.00
7214;DHT22;3648;50.614;13.830;2024-02-28T06:08:32;5.10;1.00
7214;DHT22;3648;50.614;13.830;2024-02-28T06:11:00;5.00;1.00
7214;DHT22;3648;50.614;13.830;2024-02-28T06:13:27;5.00;1.00
7214;DHT22;3648;50.614;13.830;2024-02-28T06:15:54;5.00;1.00
7214;DHT22;3648;50.614;13.830;2024-02-28T06:18:21;5.00;1.00
7214;DHT22;3648;50.614;13.830;2024-02-28T06:20:52;5.00;1.00
7214;DHT22;3648;50.614;13.830;2024-02-28T06:23:19;5.00;1.00
7214;DHT22;3648;50.614;13.830;2024-02-28T06:25:47;5.00;1.00
7214;DHT22;3648;50.614;13.830;2024-02-28T06:28:14;5.10;1.00
7214;DHT22;3648;50.614;13.830;2024-02-28T06:30:42;5.10;1.00
7214;DHT22;3648;50.614;13.830;2024-02-28T06:33:09;5.20;1.00
7214;DHT22;3648;50.614;13.830;2024-02-28T06:35:36;5.20;1.00
7214;DHT22;3648;50.614;13.830;2024-02-28T06:38:03;5.20;1.00
7214;DHT22;3648;50.614;13.830;2024-02-28T06:40:30;5.30;1.00
7214;DHT22;3648;50.614;13.830;2024-02-28T06:42:59;5.30;1.00
7214;DHT22;3648;50.614;13.830;2024-02-28T06:45:26;5.30;1.00
7214;DHT22;3648;50.614;13.830;2024-02-28T06:47:53;5.40;1.00
7214;DHT22;3648;50.614;13.830;2024-02-28T06:50:20;5.50;1.00
7214;DHT22;3648;50.614;13.830;2024-02-28T06:52:47;5.40;1.00
7214;DHT22;3648;50.614;13.830;2024-02-28T06:55:14;5.40;1.00
7214;DHT22;3648;50.614;13.830;2024-02-28T06:57:42;5.40;1.00
7214;DHT22;3648;50.614;13.830;2024-02-28T07:00:11;5.50;1.00
7214;DHT22;3648;50.614;13.830;2024-02-28T07:02:40;5.60;1.00
7214;DHT22;3648;50.614;13.830;2024-02-28T07:05:07;5.60;1.00
7214;DHT22;3648;50.614;13.830;2024-02-28T07:07:34;5.60;1.00
7214;DHT22;3648;50.614;13.830;2024-02-28T07:10:03;5.70;1.00
7214;DHT22;3648;50.614;13.830;2024-02-28T07:12:31;5.70;1.00
7214;DHT22;3648;50.614;13.830;2024-02-28T07:14:58;5.60;1.00
7214;DHT22;3648;50.614;13.830;2024-02-28T07:17:26;5.60;1.00
7214;DHT22;3648;50.614;13.830;2024-02-28T07:19:53;5.60;1.00
7214;DHT22;3648;50.614;13.830;2024-02-28T07:22:20;5.60;1.00
7214;DHT22;3648;50.614;13.830;2024-02-28T07:24:47;5.60;1.00
7214;DHT22;3648;50.614;13.830;2024-02-28T07:27:14;5.60;1.00
7214;DHT22;3648;50.614;13.830;2024-02-28T07:29:42;5.60;1.00
7214;DHT22;3648;50.614;13.830;2024-02-28T07:32:09;5.60;1.00
7214;DHT22;3648;50.614;13.830;2024-02-28T07:34:38;5.60;1.00
7214;DHT22;3648;50.614;13.830;2024-02-28T07:37:05;5.70;1.00
7214;DHT22;3648;50.614;13.830;2024-02-28T07:39:32;5.80;1.00
7214;DHT22;3648;50.614;13.830;2024-02-28T07:41:59;5.80;1.00
7214;DHT22;3648;50.614;13.830;2024-02-28T07:44:26;5.90;1.00
7214;DHT22;3648;50.614;13.830;2024-02-28T07:46:56;6.10;1.00
7214;DHT22;3648;50.614;13.830;2024-02-28T07:49:23;6.20;1.00
7214;DHT22;3648;50.614;13.830;2024-02-28T07:51:51;6.30;1.00
7214;DHT22;3648;50.614;13.830;2024-02-28T07:54:18;6.30;1.00
7214;DHT22;3648;50.614;13.830;2024-02-28T07:56:45;6.40;1.00
7214;DHT22;3648;50.614;13.830;2024-02-28T07:59:12;6.40;1.00
7214;DHT22;3648;50.614;13.830;2024-02-28T08:01:39;6.60;1.00
7214;DHT22;3648;50.614;13.830;2024-02-28T08:04:06;6.70;1.00
7214;DHT22;3648;50.614;13.830;2024-02-28T08:06:33;6.80;1.00
7214;DHT22;3648;50.614;13.830;2024-02-28T08:09:01;6.80;1.00
7214;DHT22;3648;50.614;13.830;2024-02-28T08:11:30;7.00;1.00
7214;DHT22;3648;50.614;13.830;2024-02-28T08:14:00;7.20;1.00
7214;DHT22;3648;50.614;13.830;2024-02-28T08:16:27;7.40;1.00
7214;DHT22;3648;50.614;13.830;2024-02-28T08:18:54;7.70;1.00
7214;DHT22;3648;50.614;13.830;2024-02-28T08:21:21;7.90;1.00
7214;DHT22;3648;50.614;13.830;2024-02-28T08:23:48;8.10;1.00
7214;DHT22;3648;50.614;13.830;2024-02-28T08:26:17;8.00;1.00
7214;DHT22;3648;50.614;13.830;2024-02-28T08:28:44;7.90;1.00
7214;DHT22;3648;50.614;13.830;2024-02-28T08:31:11;7.80;1.00
7214;DHT22;3648;50.614;13.830;2024-02-28T08:33:38;7.70;1.00
7214;DHT22;3648;50.614;13.830;2024-02-28T08:36:05;7.80;1.00
7214;DHT22;3648;50.614;13.830;2024-02-28T08:38:32;7.80;1.00
7214;DHT22;3648;50.614;13.830;2024-02-28T08:41:00;7.70;1.00
7214;DHT22;3648;50.614;13.830;2024-02-28T08:43:28;7.80;1.00
7214;DHT22;3648;50.614;13.830;2024-02-28T08:45:55;7.70;1.00
7214;DHT22;3648;50.614;13.830;2024-02-28T08:48:22;7.80;1.00
7214;DHT22;3648;50.614;13.830;2024-02-28T08:50:49;7.80;1.00
7214;DHT22;3648;50.614;13.830;2024-02-28T08:53:16;7.80;1.00
7214;DHT22;3648;50.614;13.830;2024-02-28T08:55:43;7.80;1.00
7214;DHT22;3648;50.614;13.830;2024-02-28T08:58:10;7.70;1.00
7214;DHT22;3648;50.614;13.830;2024-02-28T09:00:38;7.80;1.00
7214;DHT22;3648;50.614;13.830;2024-02-28T09:03:05;7.90;1.00
7214;DHT22;3648;50.614;13.830;2024-02-28T09:05:32;7.90;1.00
7214;DHT22;3648;50.614;13.830;2024-02-28T09:07:59;8.00;1.00
7214;DHT22;3648;50.614;13.830;2024-02-28T09:10:27;8.00;1.00
7214;DHT22;3648;50.614;13.830;2024-02-28T09:12:57;8.10;1.00
7214;DHT22;3648;50.614;13.830;2024-02-28T09:15:24;8.10;1.00
7214;DHT22;3648;50.614;13.830;2024-02-28T09:17:52;8.10;1.00
7214;DHT22;3648;50.614;13.830;2024-02-28T09:20:19;8.10;1.00
7214;DHT22;3648;50.614;13.830;2024-02-28T09:22:46;8.00;1.00
7214;DHT22;3648;50.614;13.830;2024-02-28T09:25:13;7.90;1.00
7214;DHT22;3648;50.614;13.830;2024-02-28T09:27:41;7.90;1.00
7214;DHT22;3648;50.614;13.830;2024-02-28T09:30:09;7.90;1.00
7214;DHT22;3648;50.614;13.830;2024-02-28T09:32:36;7.90;1.00
7214;DHT22;3648;50.614;13.830;2024-02-28T09:35:05;7.70;1.00
7214;DHT22;3648;50.614;13.830;2024-02-28T09:37:32;7.70;1.00
7214;DHT22;3648;50.614;13.830;2024-02-28T09:39:59;7.60;1.00
7214;DHT22;3648;50.614;13.830;2024-02-28T09:42:28;7.70;1.00
7214;DHT22;3648;50.614;13.830;2024-02-28T09:45:00;7.70;1.00
7214;DHT22;3648;50.614;13.830;2024-02-28T09:47:28;7.70;1.00
7214;DHT22;3648;50.614;13.830;2024-02-28T09:49:57;7.70;1.00
7214;DHT22;3648;50.614;13.830;2024-02-28T09:52:27;7.70;1.00
7214;DHT22;3648;50.614;13.830;2024-02-28T09:54:54;7.40;1.00
7214;DHT22;3648;50.614;13.830;2024-02-28T09:57:22;7.50;1.00
7214;DHT22;3648;50.614;13.830;2024-02-28T09:59:54;7.50;1.00
7214;DHT22;3648;50.614;13.830;2024-02-28T10:02:23;7.50;1.00
7214;DHT22;3648;50.614;13.830;2024-02-28T10:04:52;7.40;1.00
7214;DHT22;3648;50.614;13.830;2024-02-28T10:07:19;7.40;1.00
7214;DHT22;3648;50.614;13.830;2024-02-28T10:09:48;7.40;1.00
7214;DHT22;3648;50.614;13.830;2024-02-28T10:12:15;7.30;1.00
7214;DHT22;3648;50.614;13.830;2024-02-28T10:14:44;7.30;1.00
7214;DHT22;3648;50.614;13.830;2024-02-28T10:17:11;7.30;1.00
7214;DHT22;3648;50.614;13.830;2024-02-28T10:19:38;7.20;1.00
7214;DHT22;3648;50.614;13.830;2024-02-28T10:22:06;7.30;1.00
7214;DHT22;3648;50.614;13.830;2024-02-28T10:24:33;7.20;1.00
7214;DHT22;3648;50.614;13.830;2024-02-28T10:27:02;7.40;1.00
7214;DHT22;3648;50.614;13.830;2024-02-28T10:29:29;7.40;1.00
7214;DHT22;3648;50.614;13.830;2024-02-28T10:31:58;7.30;1.00
7214;DHT22;3648;50.614;13.830;2024-02-28T10:34:25;7.40;1.00
7214;DHT22;3648;50.614;13.830;2024-02-28T10:36:52;7.50;1.00
7214;DHT22;3648;50.614;13.830;2024-02-28T10:39:19;7.50;1.00
7214;DHT22;3648;50.614;13.830;2024-02-28T10:41:48;7.60;1.00
7214;DHT22;3648;50.614;13.830;2024-02-28T10:44:20;7.60;1.00
7214;DHT22;3648;50.614;13.830;2024-02-28T10:46:49;7.60;1.00
7214;DHT22;3648;50.614;13.830;2024-02-28T10:49:17;7.70;1.00
7214;DHT22;3648;50.614;13.830;2024-02-28T10:51:46;7.80;1.00
7214;DHT22;3648;50.614;13.830;2024-02-28T10:54:15;7.80;1.00
7214;DHT22;3648;50.614;13.830;2024-02-28T10:56:43;7.90;1.00
7214;DHT22;3648;50.614;13.830;2024-02-28T10:59:10;8.00;1.00
7214;DHT22;3648;50.614;13.830;2024-02-28T11:01:41;8.00;1.00
7214;DHT22;3648;50.614;13.830;2024-02-28T11:04:09;8.10;1.00
7214;DHT22;3648;50.614;13.830;2024-02-28T11:06:48;8.20;1.00
7214;DHT22;3648;50.614;13.830;2024-02-28T11:09:19;8.10;1.00
7214;DHT22;3648;50.614;13.830;2024-02-28T11:11:48;8.10;1.00
7214;DHT22;3648;50.614;13.830;2024-02-28T11:14:16;8.20;1.00
7214;DHT22;3648;50.614;13.830;2024-02-28T11:16:44;8.20;1.00
7214;DHT22;3648;50.614;13.830;2024-02-28T11:19:20;8.30;1.00
7214;DHT22;3648;50.614;13.830;2024-02-28T11:21:53;8.40;1.00
7214;DHT22;3648;50.614;13.830;2024-02-28T11:24:23;8.50;1.00
7214;DHT22;3648;50.614;13.830;2024-02-28T11:26:51;8.50;1.00
7214;DHT22;3648;50.614;13.830;2024-02-28T11:29:22;8.60;1.00
7214;DHT22;3648;50.614;13.830;2024-02-28T11:31:52;8.80;1.00
7214;DHT22;3648;50.614;13.830;2024-02-28T11:34:19;8.70;1.00
7214;DHT22;3648;50.614;13.830;2024-02-28T11:36:47;8.80;1.00
7214;DHT22;3648;50.614;13.830;2024-02-28T11:39:16;8.80;1.00
7214;DHT22;3648;50.614;13.830;2024-02-28T11:41:43;8.80;1.00
7214;DHT22;3648;50.614;13.830;2024-02-28T11:44:12;8.80;1.00
7214;DHT22;3648;50.614;13.830;2024-02-28T11:46:43;8.90;1.00
7214;DHT22;3648;50.614;13.830;2024-02-28T11:49:12;8.80;1.00
7214;DHT22;3648;50.614;13.830;2024-02-28T11:51:40;9.00;1.00
7214;DHT22;3648;50.614;13.830;2024-02-28T11:54:08;9.10;1.00
7214;DHT22;3648;50.614;13.830;2024-02-28T11:56:36;9.10;1.00
7214;DHT22;3648;50.614;13.830;2024-02-28T11:59:04;9.10;1.00
7214;DHT22;3648;50.614;13.830;2024-02-28T12:01:35;9.30;1.00
7214;DHT22;3648;50.614;13.830;2024-02-28T12:04:03;9.50;1.00
7214;DHT22;3648;50.614;13.830;2024-02-28T12:06:34;9.60;1.00
7214;DHT22;3648;50.614;13.830;2024-02-28T12:09:02;9.70;1.00
7214;DHT22;3648;50.614;13.830;2024-02-28T12:11:29;9.70;1.00
7214;DHT22;3648;50.614;13.830;2024-02-28T12:13:57;9.60;1.00
7214;DHT22;3648;50.614;13.830;2024-02-28T12:16:24;9.60;1.00
7214;DHT22;3648;50.614;13.830;2024-02-28T12:18:53;9.60;1.00
7214;DHT22;3648;50.614;13.830;2024-02-28T12:21:20;9.60;1.00
7214;DHT22;3648;50.614;13.830;2024-02-28T12:23:49;9.50;1.00
7214;DHT22;3648;50.614;13.830;2024-02-28T12:26:17;9.60;1.00
7214;DHT22;3648;50.614;13.830;2024-02-28T12:28:45;9.70;1.00
7214;DHT22;3648;50.614;13.830;2024-02-28T12:31:13;9.80;1.00
7214;DHT22;3648;50.614;13.830;2024-02-28T12:33:40;9.80;1.00
7214;DHT22;3648;50.614;13.830;2024-02-28T12:36:08;9.80;1.00
7214;DHT22;3648;50.614;13.830;2024-02-28T12:38:35;9.80;1.00
7214;DHT22;3648;50.614;13.830;2024-02-28T12:41:04;9.90;1.00
7214;DHT22;3648;50.614;13.830;2024-02-28T12:43:31;10.00;1.00
7214;DHT22;3648;50.614;13.830;2024-02-28T12:45:59;9.90;1.00
7214;DHT22;3648;50.614;13.830;2024-02-28T12:48:26;9.70;1.00
7214;DHT22;3648;50.614;13.830;2024-02-28T12:50:53;9.70;1.00
7214;DHT22;3648;50.614;13.830;2024-02-28T12:53:20;9.60;1.00
7214;DHT22;3648;50.614;13.830;2024-02-28T12:55:47;9.70;1.00
7214;DHT22;3648;50.614;13.830;2024-02-28T12:58:15;9.60;1.00
7214;DHT22;3648;50.614;13.830;2024-02-28T13:00:42;9.60;1.00
7214;DHT22;3648;50.614;13.830;2024-02-28T13:03:09;9.70;1.00
7214;DHT22;3648;50.614;13.830;2024-02-28T13:05:37;9.70;1.00
7214;DHT22;3648;50.614;13.830;2024-02-28T13:08:05;9.80;1.00
7214;DHT22;3648;50.614;13.830;2024-02-28T13:10:32;9.80;1.00
7214;DHT22;3648;50.614;13.830;2024-02-28T13:13:02;9.80;1.00
7214;DHT22;3648;50.614;13.830;2024-02-28T13:15:30;9.90;1.00
7214;DHT22;3648;50.614;13.830;2024-02-28T13:17:57;10.00;1.00
7214;DHT22;3648;50.614;13.830;2024-02-28T13:20:24;10.00;1.00
7214;DHT22;3648;50.614;13.830;2024-02-28T13:22:51;10.00;1.00
7214;DHT22;3648;50.614;13.830;2024-02-28T13:25:19;10.10;1.00
7214;DHT22;3648;50.614;13.830;2024-02-28T13:27:46;10.10;1.00
7214;DHT22;3648;50.614;13.830;2024-02-28T13:30:13;10.20;1.00
7214;DHT22;3648;50.614;13.830;2024-02-28T13:32:42;10.10;1.00
7214;DHT22;3648;50.614;13.830;2024-02-28T13:35:09;9.70;1.00
7214;DHT22;3648;50.614;13.830;2024-02-28T13:37:36;9.50;1.00
7214;DHT22;3648;50.614;13.830;2024-02-28T13:40:07;9.30;1.00
7214;DHT22;3648;50.614;13.830;2024-02-28T13:42:36;9.20;1.00
7214;DHT22;3648;50.614;13.830;2024-02-28T13:45:03;9.10;1.00
7214;DHT22;3648;50.614;13.830;2024-02-28T13:47:32;9.20;1.00
7214;DHT22;3648;50.614;13.830;2024-02-28T13:50:01;9.10;1.00
7214;DHT22;3648;50.614;13.830;2024-02-28T13:52:28;9.20;1.00
7214;DHT22;3648;50.614;13.830;2024-02-28T13:54:55;9.10;1.00
7214;DHT22;3648;50.614;13.830;2024-02-28T13:57:22;9.00;1.00
7214;DHT22;3648;50.614;13.830;2024-02-28T13:59:49;8.90;1.00
7214;DHT22;3648;50.614;13.830;2024-02-28T14:02:19;8.90;1.00
7214;DHT22;3648;50.614;13.830;2024-02-28T14:04:46;8.90;1.00
7214;DHT22;3648;50.614;13.830;2024-02-28T14:07:16;8.90;1.00
7214;DHT22;3648;50.614;13.830;2024-02-28T14:09:43;9.00;1.00
7214;DHT22;3648;50.614;13.830;2024-02-28T14:12:11;8.90;1.00
7214;DHT22;3648;50.614;13.830;2024-02-28T14:14:38;8.90;1.00
7214;DHT22;3648;50.614;13.830;2024-02-28T14:17:06;8.90;1.00
7214;DHT22;3648;50.614;13.830;2024-02-28T14:19:33;8.80;1.00
7214;DHT22;3648;50.614;13.830;2024-02-28T14:22:02;8.70;1.00
7214;DHT22;3648;50.614;13.830;2024-02-28T14:24:31;8.80;1.00
7214;DHT22;3648;50.614;13.830;2024-02-28T14:26:58;8.90;1.00
7214;DHT22;3648;50.614;13.830;2024-02-28T14:29:25;9.00;1.00
7214;DHT22;3648;50.614;13.830;2024-02-28T14:31:52;9.10;1.00
7214;DHT22;3648;50.614;13.830;2024-02-28T14:34:19;9.10;1.00
7214;DHT22;3648;50.614;13.830;2024-02-28T14:36:47;9.10;1.00
7214;DHT22;3648;50.614;13.830;2024-02-28T14:39:15;9.20;1.00
7214;DHT22;3648;50.614;13.830;2024-02-28T14:41:44;9.30;1.00
7214;DHT22;3648;50.614;13.830;2024-02-28T14:44:11;9.30;1.00
7214;DHT22;3648;50.614;13.830;2024-02-28T14:46:39;9.40;1.00
7214;DHT22;3648;50.614;13.830;2024-02-28T14:49:06;9.40;1.00
7214;DHT22;3648;50.614;13.830;2024-02-28T14:51:33;9.30;1.00
7214;DHT22;3648;50.614;13.830;2024-02-28T14:54:00;9.20;1.00
7214;DHT22;3648;50.614;13.830;2024-02-28T14:56:28;9.20;1.00
7214;DHT22;3648;50.614;13.830;2024-02-28T14:58:56;9.10;1.00
7214;DHT22;3648;50.614;13.830;2024-02-28T15:01:23;9.00;1.00
7214;DHT22;3648;50.614;13.830;2024-02-28T15:03:51;9.00;1.00
7214;DHT22;3648;50.614;13.830;2024-02-28T15:06:18;9.00;1.00
7214;DHT22;3648;50.614;13.830;2024-02-28T15:08:45;9.00;1.00
7214;DHT22;3648;50.614;13.830;2024-02-28T15:11:12;9.00;1.00
7214;DHT22;3648;50.614;13.830;2024-02-28T15:13:42;8.90;1.00
7214;DHT22;3648;50.614;13.830;2024-02-28T15:16:11;8.90;1.00
7214;DHT22;3648;50.614;13.830;2024-02-28T15:18:38;8.70;1.00
7214;DHT22;3648;50.614;13.830;2024-02-28T15:21:06;8.60;1.00
7214;DHT22;3648;50.614;13.830;2024-02-28T15:23:34;8.50;1.00
7214;DHT22;3648;50.614;13.830;2024-02-28T15:26:01;8.40;1.00
7214;DHT22;3648;50.614;13.830;2024-02-28T15:28:28;8.30;1.00
7214;DHT22;3648;50.614;13.830;2024-02-28T15:30:56;8.10;1.00
7214;DHT22;3648;50.614;13.830;2024-02-28T15:33:25;7.90;1.00
7214;DHT22;3648;50.614;13.830;2024-02-28T15:35:53;7.90;1.00
7214;DHT22;3648;50.614;13.830;2024-02-28T15:38:21;7.80;1.00
7214;DHT22;3648;50.614;13.830;2024-02-28T15:40:49;7.70;1.00
7214;DHT22;3648;50.614;13.830;2024-02-28T15:43:16;7.60;1.00
7214;DHT22;3648;50.614;13.830;2024-02-28T15:45:43;7.60;1.00
7214;DHT22;3648;50.614;13.830;2024-02-28T15:48:10;7.50;1.00
7214;DHT22;3648;50.614;13.830;2024-02-28T15:50:39;7.40;1.00
7214;DHT22;3648;50.614;13.830;2024-02-28T15:53:06;7.40;1.00
7214;DHT22;3648;50.614;13.830;2024-02-28T15:55:33;7.40;1.00
7214;DHT22;3648;50.614;13.830;2024-02-28T15:58:00;7.30;1.00
7214;DHT22;3648;50.614;13.830;2024-02-28T16:00:27;7.30;1.00
7214;DHT22;3648;50.614;13.830;2024-02-28T16:02:54;7.10;1.00
7214;DHT22;3648;50.614;13.830;2024-02-28T16:05:21;7.10;1.00
7214;DHT22;3648;50.614;13.830;2024-02-28T16:07:51;7.10;1.00
7214;DHT22;3648;50.614;13.830;2024-02-28T16:10:19;7.00;1.00
7214;DHT22;3648;50.614;13.830;2024-02-28T16:12:46;7.00;1.00
7214;DHT22;3648;50.614;13.830;2024-02-28T16:15:13;6.90;1.00
7214;DHT22;3648;50.614;13.830;2024-02-28T16:17:40;6.90;1.00
7214;DHT22;3648;50.614;13.830;2024-02-28T16:20:08;6.80;1.00